createdAt,value
2018-02-21T00:01:03.921Z,20.43
2018-02-21T00:03:35.098Z,21.80
2018-02-21T00:06:05.982Z,20.67
2018-02-21T00:08:36.739Z,16.70
2018-02-21T00:11:07.702Z,19.00
2018-02-21T00:13:38.416Z,18.27
2018-02-21T00:16:09.286Z,17.53
2018-02-21T00:18:40.931Z,17.23
2018-02-21T00:21:11.674Z,18.17
2018-02-21T00:23:42.382Z,17.17
2018-02-21T00:26:13.062Z,16.13
2018-02-21T00:28:44.807Z,16.53
2018-02-21T00:31:16.463Z,16.70
2018-02-21T00:33:48.205Z,14.00
2018-02-21T00:36:18.774Z,14.63
2018-02-21T00:38:49.657Z,17.03
2018-02-21T00:41:20.701Z,15.90
2018-02-21T00:43:51.474Z,16.90
2018-02-21T00:46:23.095Z,16.23
2018-02-21T00:48:55.569Z,15.80
2018-02-21T00:51:27.218Z,17.20
2018-02-21T00:53:57.915Z,15.83
2018-02-21T00:56:28.791Z,15.47
2018-02-21T00:58:59.606Z,14.33
2018-02-21T01:01:30.138Z,15.77
2018-02-21T01:04:01.010Z,14.90
2018-02-21T01:06:32.450Z,12.97
2018-02-21T01:09:03.075Z,13.93
2018-02-21T01:11:33.882Z,12.63
2018-02-21T01:14:04.776Z,13.90
2018-02-21T01:16:36.403Z,12.57
2018-02-21T01:19:07.223Z,13.03
2018-02-21T01:21:38.107Z,12.60
2018-02-21T01:24:09.826Z,12.07
2018-02-21T01:26:40.622Z,12.60
2018-02-21T01:29:11.375Z,11.87
2018-02-21T01:31:42.007Z,11.00
2018-02-21T01:34:12.838Z,10.80
2018-02-21T01:36:43.464Z,10.97
2018-02-21T01:39:14.452Z,11.20
2018-02-21T01:41:45.242Z,10.43
2018-02-21T01:44:16.250Z,9.40
2018-02-21T01:46:48.566Z,10.87
2018-02-21T01:49:19.486Z,10.20
2018-02-21T01:51:50.371Z,9.90
2018-02-21T01:54:21.087Z,9.20
2018-02-21T01:56:51.834Z,10.40
2018-02-21T01:59:22.422Z,9.60
2018-02-21T02:01:53.275Z,10.50
2018-02-21T02:04:24.114Z,10.90
2018-02-21T02:06:54.873Z,11.27
2018-02-21T02:09:25.685Z,10.20
2018-02-21T02:11:57.239Z,11.23
2018-02-21T02:14:27.930Z,11.33
2018-02-21T02:16:58.808Z,11.77
2018-02-21T02:19:30.114Z,11.43
2018-02-21T02:22:01.757Z,11.37
2018-02-21T02:24:33.513Z,11.97
2018-02-21T02:27:04.933Z,12.00
2018-02-21T02:29:36.699Z,11.80
2018-02-21T02:32:07.570Z,12.00
2018-02-21T02:34:39.090Z,11.60
2018-02-21T02:37:10.333Z,10.43
2018-02-21T02:40:03.905Z,12.10
2018-02-21T02:42:34.724Z,12.03
2018-02-21T02:45:05.480Z,13.50
2018-02-21T02:47:36.287Z,13.70
2018-02-21T02:50:07.387Z,13.43
2018-02-21T02:52:38.299Z,13.70
2018-02-21T02:55:09.127Z,14.23
2018-02-21T02:57:40.047Z,14.07
2018-02-21T03:02:46.814Z,14.37
2018-02-21T03:05:17.695Z,13.77
2018-02-21T03:07:48.326Z,12.40
2018-02-21T03:10:19.379Z,13.57
2018-02-21T03:12:50.813Z,13.67
2018-02-21T03:15:21.776Z,15.17
2018-02-21T03:17:53.289Z,16.40
2018-02-21T03:20:24.162Z,13.47
2018-02-21T03:22:55.772Z,14.97
2018-02-21T03:25:26.674Z,15.70
2018-02-21T03:27:57.406Z,15.20
2018-02-21T03:30:29.092Z,15.80
2018-02-21T03:33:00.135Z,14.90
2018-02-21T03:35:31.086Z,15.23
2018-02-21T03:38:02.479Z,14.90
2018-02-21T03:40:34.106Z,16.23
2018-02-21T03:43:05.066Z,13.77
2018-02-21T03:45:36.694Z,14.70
2018-02-21T03:48:07.982Z,15.60
2018-02-21T03:50:38.730Z,15.40
2018-02-21T03:53:09.481Z,15.50
2018-02-21T03:55:40.329Z,17.60
2018-02-21T03:58:11.178Z,15.63
2018-02-21T04:00:42.020Z,15.83
2018-02-21T04:03:12.859Z,14.77
2018-02-21T04:05:43.548Z,14.60
2018-02-21T04:08:14.183Z,13.77
2018-02-21T04:10:45.454Z,15.00
2018-02-21T04:13:16.315Z,13.20
2018-02-21T04:15:47.201Z,14.40
2018-02-21T04:18:18.131Z,13.37
2018-02-21T04:20:48.939Z,15.43
2018-02-21T04:23:20.293Z,16.33
2018-02-21T04:25:51.923Z,16.67
2018-02-21T04:28:22.723Z,16.27
2018-02-21T04:30:53.581Z,15.80
2018-02-21T04:33:24.447Z,14.20
2018-02-21T04:35:55.282Z,15.37
2018-02-21T04:38:26.139Z,14.90
2018-02-21T04:40:57.981Z,16.03
2018-02-21T04:43:28.758Z,15.20
2018-02-21T04:45:59.508Z,16.27
2018-02-21T04:48:30.124Z,15.17
2018-02-21T04:51:00.931Z,14.80
2018-02-21T04:53:32.810Z,14.10
2018-02-21T04:59:20.728Z,14.90
2018-02-21T05:01:51.657Z,14.37
2018-02-21T05:04:23.421Z,15.97
2018-02-21T05:06:54.275Z,16.97
2018-02-21T05:09:25.867Z,17.47
2018-02-21T05:11:56.657Z,15.60
2018-02-21T05:14:28.282Z,15.83
2018-02-21T05:16:59.242Z,16.60
2018-02-21T05:19:30.247Z,17.47
2018-02-21T05:22:01.135Z,18.77
2018-02-21T05:24:32.710Z,19.90
2018-02-21T05:27:03.604Z,17.70
2018-02-21T05:29:34.389Z,19.60
2018-02-21T05:32:05.191Z,20.30
2018-02-21T05:34:36.798Z,18.83
2018-02-21T05:37:07.527Z,19.27
2018-02-21T05:39:38.015Z,19.67
2018-02-21T05:42:09.691Z,17.13
2018-02-21T05:44:40.521Z,17.60
2018-02-21T05:47:11.327Z,19.83
2018-02-21T05:49:42.268Z,15.83
2018-02-21T05:52:13.099Z,18.07
2018-02-21T05:54:43.949Z,19.13
2018-02-21T05:57:15.425Z,17.17
2018-02-21T05:59:46.230Z,19.53
2018-02-21T06:02:17.683Z,18.50
2018-02-21T06:04:49.548Z,18.00
2018-02-21T06:07:21.339Z,17.63
2018-02-21T06:09:52.235Z,18.93
2018-02-21T06:12:23.014Z,18.70
2018-02-21T06:14:54.209Z,20.07
2018-02-21T06:17:25.043Z,20.57
2018-02-21T06:19:56.070Z,20.10
2018-02-21T06:22:27.160Z,18.90
2018-02-21T06:24:57.980Z,19.10
2018-02-21T06:27:30.132Z,17.90
2018-02-21T06:30:01.098Z,15.47
2018-02-21T06:32:32.706Z,17.93
2018-02-21T06:35:03.585Z,16.93
2018-02-21T06:37:35.338Z,16.83
2018-02-21T06:40:06.502Z,16.80
2018-02-21T06:42:37.044Z,17.63
2018-02-21T06:45:07.970Z,16.80
2018-02-21T06:47:38.866Z,16.80
2018-02-21T06:50:09.577Z,16.77
2018-02-21T06:52:39.930Z,17.17
2018-02-21T06:55:10.762Z,17.93
2018-02-21T06:57:41.666Z,19.80
2018-02-21T07:00:12.876Z,17.70
2018-02-21T07:02:43.673Z,17.80
2018-02-21T07:05:14.627Z,17.00
2018-02-21T07:07:47.566Z,19.03
2018-02-21T07:10:18.437Z,20.03
2018-02-21T07:12:49.127Z,19.93
2018-02-21T07:15:20.113Z,19.00
2018-02-21T07:17:50.953Z,19.53
2018-02-21T07:20:22.579Z,19.57
2018-02-21T07:22:53.562Z,19.70
2018-02-21T07:25:25.108Z,19.43
2018-02-21T07:27:57.006Z,19.77
2018-02-21T07:30:27.807Z,17.90
2018-02-21T07:32:59.795Z,17.37
2018-02-21T07:35:30.645Z,17.63
2018-02-21T07:38:02.366Z,18.40
2018-02-21T07:40:34.001Z,19.37
2018-02-21T07:43:04.647Z,19.77
2018-02-21T07:45:36.230Z,21.30
2018-02-21T07:48:07.177Z,16.40
2018-02-21T07:50:37.830Z,16.10
2018-02-21T07:53:09.306Z,16.20
2018-02-21T07:55:40.235Z,15.80
2018-02-21T07:58:10.897Z,15.73
2018-02-21T08:00:42.153Z,15.10
2018-02-21T08:03:13.909Z,16.10
2018-02-21T08:05:45.202Z,16.10
2018-02-21T08:08:16.062Z,15.63
2018-02-21T08:10:46.897Z,14.93
2018-02-21T08:13:17.882Z,15.30
2018-02-21T08:15:48.559Z,14.43
2018-02-21T08:18:19.371Z,15.57
2018-02-21T08:20:50.175Z,14.70
2018-02-21T08:23:21.087Z,14.40
2018-02-21T08:25:52.198Z,15.37
2018-02-21T08:28:23.131Z,15.20
2018-02-21T08:30:53.953Z,15.53
2018-02-21T08:33:24.711Z,15.47
2018-02-21T08:35:55.997Z,15.83
2018-02-21T08:38:27.639Z,15.83
2018-02-21T08:40:58.420Z,16.60
2018-02-21T08:43:29.314Z,15.13
2018-02-21T08:46:00.694Z,15.50
2018-02-21T08:48:31.566Z,15.60
2018-02-21T08:51:02.341Z,17.40
2018-02-21T08:53:33.965Z,15.50
2018-02-21T08:56:04.441Z,15.73
2018-02-21T08:58:36.725Z,16.50
2018-02-21T09:01:07.617Z,17.50
2018-02-21T09:03:38.467Z,17.00
2018-02-21T09:06:10.036Z,17.63
2018-02-21T09:08:41.785Z,17.93
2018-02-21T09:11:13.367Z,20.53
2018-02-21T09:13:44.198Z,18.90
2018-02-21T09:16:15.142Z,20.63
2018-02-21T09:18:45.715Z,20.40
2018-02-21T09:21:16.565Z,20.40
2018-02-21T09:23:48.271Z,21.00
2018-02-21T09:26:19.132Z,19.47
2018-02-21T09:28:50.117Z,19.17
2018-02-21T09:31:21.545Z,19.80
2018-02-21T09:33:52.310Z,19.57
2018-02-21T09:36:23.042Z,19.40
2018-02-21T09:38:54.668Z,19.50
2018-02-21T09:41:25.256Z,20.07
2018-02-21T09:43:55.788Z,19.40
2018-02-21T09:46:26.559Z,19.00
2018-02-21T09:48:57.371Z,18.43
2018-02-21T09:51:28.037Z,18.63
2018-02-21T09:53:58.859Z,18.73
2018-02-21T09:56:29.810Z,19.70
2018-02-21T09:59:00.634Z,20.97
2018-02-21T10:01:31.192Z,18.97
2018-02-21T10:04:02.688Z,19.80
2018-02-21T10:06:33.562Z,20.20
2018-02-21T10:09:04.986Z,20.00
2018-02-21T10:11:35.750Z,21.10
2018-02-21T10:14:08.707Z,20.40
2018-02-21T10:16:39.538Z,21.27
2018-02-21T10:19:10.399Z,19.77
2018-02-21T10:21:41.114Z,20.10
2018-02-21T10:24:11.911Z,18.90
2018-02-21T10:26:43.677Z,18.20
2018-02-21T10:29:14.216Z,19.87
2018-02-21T10:31:44.998Z,19.70
2018-02-21T10:34:15.791Z,18.33
2018-02-21T10:36:46.763Z,19.90
2018-02-21T10:39:17.703Z,19.00
2018-02-21T10:41:48.542Z,20.10
2018-02-21T10:44:19.293Z,18.87
2018-02-21T10:46:50.769Z,19.53
2018-02-21T10:49:21.879Z,19.50
2018-02-21T10:51:52.484Z,19.20
2018-02-21T10:54:23.252Z,20.93
2018-02-21T10:56:54.922Z,20.70
2018-02-21T10:59:25.615Z,20.03
2018-02-21T11:01:56.324Z,19.77
2018-02-21T11:04:27.129Z,21.83
2018-02-21T11:06:57.941Z,21.37
2018-02-21T11:09:29.413Z,21.30
2018-02-21T11:12:00.341Z,21.57
2018-02-21T11:14:31.221Z,22.27
2018-02-21T11:17:02.365Z,22.70
2018-02-21T11:19:33.390Z,20.23
2018-02-21T11:22:04.471Z,19.97
2018-02-21T11:24:35.265Z,22.47
2018-02-21T11:27:07.298Z,22.33
2018-02-21T11:29:38.528Z,23.00
2018-02-21T11:32:09.092Z,22.80
2018-02-21T11:34:40.032Z,23.87
2018-02-21T11:37:10.774Z,24.50
2018-02-21T11:39:41.464Z,24.50
2018-02-21T11:42:12.471Z,24.97
2018-02-21T11:44:43.842Z,23.37
2018-02-21T11:47:14.505Z,24.27
2018-02-21T11:49:46.094Z,23.37
2018-02-21T11:52:17.879Z,24.03
2018-02-21T11:54:48.647Z,25.40
2018-02-21T11:57:20.382Z,26.27
2018-02-21T11:59:51.411Z,25.70
2018-02-21T12:02:22.428Z,24.93
2018-02-21T12:04:53.338Z,26.60
2018-02-21T12:07:24.205Z,26.63
2018-02-21T12:09:55.184Z,26.20
2018-02-21T12:12:26.033Z,25.13
2018-02-21T12:14:57.695Z,24.77
2018-02-21T12:17:29.206Z,25.27
2018-02-21T12:19:59.942Z,26.47
2018-02-21T12:22:30.763Z,26.67
2018-02-21T12:25:01.650Z,25.30
2018-02-21T12:27:32.582Z,25.63
2018-02-21T12:30:04.375Z,25.53
2018-02-21T12:32:35.525Z,26.10
2018-02-21T12:35:06.355Z,27.87
2018-02-21T12:37:37.847Z,26.17
2018-02-21T12:40:08.937Z,24.60
2018-02-21T12:42:39.628Z,24.93
2018-02-21T12:45:10.434Z,25.00
2018-02-21T12:47:42.239Z,24.37
2018-02-21T12:50:13.915Z,25.30
2018-02-21T12:52:45.765Z,25.10
2018-02-21T12:55:16.558Z,25.13
2018-02-21T12:57:47.326Z,24.53
2018-02-21T13:00:19.098Z,26.23
2018-02-21T13:02:50.438Z,24.40
2018-02-21T13:05:22.038Z,24.93
2018-02-21T13:07:53.010Z,23.80
2018-02-21T13:10:23.786Z,25.37
2018-02-21T13:12:54.643Z,23.67
2018-02-21T13:15:25.693Z,23.77
2018-02-21T13:17:56.588Z,23.70
2018-02-21T13:20:28.014Z,24.23
2018-02-21T13:22:58.845Z,24.97
2018-02-21T13:25:29.610Z,23.67
2018-02-21T13:28:02.327Z,26.67
2018-02-21T13:30:33.823Z,24.63
2018-02-21T13:33:05.437Z,25.80
2018-02-21T13:35:36.225Z,23.87
2018-02-21T13:38:07.826Z,28.17
2018-02-21T13:40:38.635Z,25.50
2018-02-21T13:43:09.512Z,25.50
2018-02-21T13:45:40.289Z,26.13
2018-02-21T13:48:11.889Z,26.27
2018-02-21T13:50:42.749Z,24.87
2018-02-21T13:53:13.482Z,28.83
2018-02-21T13:55:44.435Z,26.80
2018-02-21T13:58:16.151Z,25.90
2018-02-21T14:00:47.022Z,26.17
2018-02-21T14:03:17.869Z,25.07
2018-02-21T14:05:49.564Z,25.27
2018-02-21T14:08:20.331Z,26.03
2018-02-21T14:10:51.074Z,27.20
2018-02-21T14:13:21.801Z,28.13
2018-02-21T14:15:52.674Z,26.43
2018-02-21T14:18:24.471Z,26.80
2018-02-21T14:20:55.271Z,28.20
2018-02-21T14:23:26.248Z,31.37
2018-02-21T14:25:57.322Z,30.87
2018-02-21T14:28:27.966Z,32.63
2018-02-21T14:30:58.572Z,31.50
2018-02-21T14:33:29.133Z,32.80
2018-02-21T14:36:01.719Z,34.20
2018-02-21T14:38:32.724Z,33.47
2018-02-21T14:41:03.674Z,33.93
2018-02-21T14:43:34.562Z,32.27
2018-02-21T14:46:05.459Z,35.03
2018-02-21T14:48:36.272Z,33.30
2018-02-21T14:51:07.246Z,33.27
2018-02-21T14:53:38.939Z,34.80
2018-02-21T14:56:09.878Z,34.00
2018-02-21T14:58:40.741Z,32.93
2018-02-21T15:01:11.812Z,35.03
2018-02-21T15:03:42.633Z,35.30
2018-02-21T15:06:15.127Z,35.00
2018-02-21T15:08:46.358Z,34.90
2018-02-21T15:11:17.765Z,33.60
2018-02-21T15:13:48.740Z,32.70
2018-02-21T15:16:28.899Z,34.30
2018-02-21T15:19:01.619Z,33.60
2018-02-21T15:21:32.443Z,32.53
2018-02-21T15:24:04.308Z,33.00
2018-02-21T15:26:36.244Z,33.23
2018-02-21T15:29:07.086Z,33.37
2018-02-21T15:31:38.162Z,33.80
2018-02-21T15:34:09.133Z,33.10
2018-02-21T15:36:40.313Z,33.60
2018-02-21T15:39:12.360Z,34.90
2018-02-21T15:41:43.302Z,32.70
2018-02-21T15:44:14.098Z,32.87
2018-02-21T15:46:45.044Z,33.07
2018-02-21T15:49:15.788Z,33.93
2018-02-21T15:51:46.691Z,33.53
2018-02-21T15:54:18.311Z,32.73
2018-02-21T15:56:49.363Z,35.60
2018-02-21T15:59:20.285Z,34.40
2018-02-21T16:01:50.884Z,34.23
2018-02-21T16:04:21.386Z,32.50
2018-02-21T16:06:51.862Z,33.87
2018-02-21T16:09:22.859Z,32.67
2018-02-21T16:11:53.298Z,31.23
2018-02-21T16:14:23.719Z,33.93
2018-02-21T16:16:54.484Z,32.80
2018-02-21T16:19:25.430Z,31.17
2018-02-21T16:21:56.987Z,33.50
2018-02-21T16:24:27.813Z,31.87
2018-02-21T16:26:58.626Z,31.60
2018-02-21T16:29:29.417Z,33.77
2018-02-21T16:32:00.991Z,31.30
2018-02-21T16:34:31.880Z,33.63
2018-02-21T16:37:02.862Z,31.43
2018-02-21T16:39:33.684Z,32.80
2018-02-21T16:42:05.399Z,32.63
2018-02-21T16:44:36.228Z,32.73
2018-02-21T16:47:07.021Z,32.50
2018-02-21T16:49:38.617Z,33.30
2018-02-21T16:52:09.710Z,32.47
2018-02-21T16:54:41.895Z,32.63
2018-02-21T16:57:13.412Z,31.33
2018-02-21T16:59:44.355Z,31.70
2018-02-21T17:02:15.039Z,29.63
2018-02-21T17:04:45.991Z,31.00
2018-02-21T17:07:17.679Z,31.00
2018-02-21T17:09:48.479Z,29.93
2018-02-21T17:12:19.259Z,30.23
2018-02-21T17:14:51.156Z,30.77
2018-02-21T17:17:21.926Z,31.00
2018-02-21T17:19:52.881Z,30.13
2018-02-21T17:22:23.658Z,31.47
2018-02-21T17:24:54.465Z,30.73
2018-02-21T17:27:26.135Z,31.47
2018-02-21T17:29:57.728Z,31.70
2018-02-21T17:32:28.430Z,30.23
2018-02-21T17:34:59.002Z,31.57
2018-02-21T17:37:30.545Z,31.33
2018-02-21T17:40:01.547Z,29.67
2018-02-21T17:42:33.106Z,31.00
2018-02-21T17:45:03.790Z,29.40
2018-02-21T17:47:34.544Z,28.30
2018-02-21T17:50:06.055Z,27.20
2018-02-21T17:52:36.924Z,27.30
2018-02-21T17:55:07.679Z,21.73
2018-02-21T17:57:39.441Z,20.50
2018-02-21T18:00:11.408Z,19.37
2018-02-21T18:02:43.254Z,18.87
2018-02-21T18:05:14.993Z,18.20
2018-02-21T18:07:45.722Z,17.50
2018-02-21T18:10:17.535Z,16.90
2018-02-21T18:12:48.197Z,15.90
2018-02-21T18:15:19.332Z,16.13
2018-02-21T18:17:50.614Z,17.20
2018-02-21T18:20:21.623Z,15.17
2018-02-21T18:22:52.564Z,13.90
2018-02-21T18:25:23.426Z,15.30
2018-02-21T18:27:55.138Z,13.93
2018-02-21T18:30:25.937Z,14.00
2018-02-21T18:32:57.545Z,14.27
2018-02-21T18:35:28.436Z,14.33
2018-02-21T18:38:39.040Z,13.17
2018-02-21T18:41:09.189Z,15.20
2018-02-21T18:43:39.422Z,15.63
2018-02-21T18:46:09.726Z,15.47
2018-02-21T18:48:40.090Z,13.70
2018-02-21T18:51:11.085Z,15.70
2018-02-21T18:53:41.167Z,15.00
2018-02-21T18:56:11.441Z,14.00
2018-02-21T18:58:42.048Z,14.60
2018-02-21T19:01:12.505Z,13.67
2018-02-21T19:03:43.846Z,14.33
2018-02-21T19:06:13.691Z,15.40
2018-02-21T19:08:44.535Z,15.57
2018-02-21T19:11:14.876Z,14.03
2018-02-21T19:13:45.595Z,13.87
2018-02-21T19:16:16.680Z,15.20
2018-02-21T19:18:46.798Z,13.93
2018-02-21T19:21:16.729Z,14.47
2018-02-21T19:23:47.155Z,14.33
2018-02-21T19:26:17.328Z,15.00
2018-02-21T19:28:47.593Z,15.57
2018-02-21T19:31:18.398Z,15.50
2018-02-21T19:33:48.379Z,14.23
2018-02-21T19:36:18.407Z,15.90
2018-02-21T19:38:49.755Z,15.50
2018-02-21T19:41:20.849Z,15.80
2018-02-21T19:43:51.599Z,15.30
2018-02-21T19:46:21.649Z,14.70
2018-02-21T19:48:52.749Z,15.77
2018-02-21T19:51:22.914Z,15.20
2018-02-21T19:53:54.086Z,15.80
2018-02-21T19:56:24.270Z,14.30
2018-02-21T19:58:54.504Z,15.40
2018-02-21T20:01:25.426Z,15.87
2018-02-21T20:03:55.609Z,15.30
2018-02-21T20:06:25.728Z,14.80
2018-02-21T20:08:55.760Z,16.00
2018-02-21T20:11:26.303Z,17.03
2018-02-21T20:13:57.229Z,16.13
2018-02-21T20:16:27.249Z,14.60
2018-02-21T20:18:57.519Z,16.00
2018-02-21T20:21:27.807Z,18.70
2018-02-21T20:23:57.915Z,17.50
2018-02-21T20:26:27.929Z,18.47
2018-02-21T20:28:58.252Z,19.17
2018-02-21T20:31:28.086Z,18.63
2018-02-21T20:33:59.200Z,18.97
2018-02-21T20:36:30.216Z,16.97
2018-02-21T20:39:00.742Z,17.30
2018-02-21T20:41:30.818Z,16.60
2018-02-21T20:44:02.063Z,15.90
2018-02-21T20:46:33.258Z,17.53
2018-02-21T20:49:03.415Z,18.60
2018-02-21T20:51:33.637Z,16.70
2018-02-21T20:54:03.970Z,18.37
2018-02-21T20:56:34.345Z,20.43
2018-02-21T20:59:04.559Z,19.53
2018-02-21T21:01:34.817Z,19.57
2018-02-21T21:04:04.818Z,18.57
2018-02-21T21:06:34.953Z,20.27
2018-02-21T21:09:05.514Z,19.50
2018-02-21T21:11:37.161Z,18.97
2018-02-21T21:14:07.457Z,20.87
2018-02-21T21:16:37.641Z,18.80
2018-02-21T21:19:07.918Z,21.43
2018-02-21T21:21:38.490Z,22.27
2018-02-21T21:24:08.937Z,21.03
2018-02-21T21:26:39.217Z,19.67
2018-02-21T21:29:10.783Z,21.23
2018-02-21T21:31:40.891Z,19.67
2018-02-21T21:34:10.970Z,18.50
2018-02-21T21:36:41.098Z,21.00
2018-02-21T21:39:11.401Z,21.27
2018-02-21T21:41:41.538Z,22.00
2018-02-21T21:44:11.849Z,20.90
2018-02-21T21:46:42.173Z,19.43
2018-02-21T21:49:12.476Z,23.43
2018-02-21T21:51:42.562Z,22.00
2018-02-21T21:54:12.381Z,22.83
2018-02-21T21:56:43.279Z,22.33
2018-02-21T21:59:13.634Z,23.03
2018-02-21T22:01:44.106Z,23.40
2018-02-21T22:04:14.669Z,23.90
2018-02-21T22:06:44.776Z,23.13
2018-02-21T22:09:15.078Z,22.57
2018-02-21T22:11:45.267Z,25.07
2018-02-21T22:14:17.118Z,23.83
2018-02-21T22:16:48.417Z,22.60
2018-02-21T22:19:18.889Z,23.50
2018-02-21T22:21:51.024Z,24.20
2018-02-21T22:24:21.494Z,22.90
2018-02-21T22:26:52.666Z,23.70
2018-02-21T22:29:23.606Z,23.03
2018-02-21T22:31:53.965Z,22.63
2018-02-21T22:34:24.247Z,23.40
2018-02-21T22:36:54.410Z,23.27
2018-02-21T22:39:24.358Z,24.47
2018-02-21T22:41:55.426Z,24.90
2018-02-21T22:44:25.809Z,24.40
2018-02-21T22:46:55.621Z,23.73
2018-02-21T22:49:25.942Z,26.73
2018-02-21T22:51:56.433Z,28.67
2018-02-21T22:54:26.541Z,28.50
2018-02-21T22:56:56.602Z,28.33
2018-02-21T22:59:26.226Z,28.87
2018-02-21T23:01:56.524Z,28.57
2018-02-21T23:04:26.962Z,28.30
2018-02-21T23:06:56.950Z,29.10
2018-02-21T23:09:27.088Z,29.90
2018-02-21T23:11:57.424Z,28.60
2018-02-21T23:14:27.970Z,26.83
2018-02-21T23:16:59.091Z,27.40
2018-02-21T23:19:29.339Z,28.53
2018-02-21T23:22:00.462Z,28.17
2018-02-21T23:24:30.666Z,29.50
2018-02-21T23:27:01.049Z,30.10
2018-02-21T23:29:31.490Z,30.30
2018-02-21T23:32:01.920Z,29.93
2018-02-21T23:34:31.953Z,31.03
2018-02-21T23:37:03.085Z,31.43
2018-02-21T23:39:33.264Z,32.00
2018-02-21T23:42:04.216Z,31.50
2018-02-21T23:44:34.444Z,33.40
2018-02-21T23:47:05.619Z,30.20
2018-02-21T23:49:35.985Z,33.03
2018-02-21T23:52:06.407Z,34.03
2018-02-21T23:54:36.535Z,33.17
2018-02-21T23:57:09.353Z,35.87
2018-02-21T23:59:39.396Z,32.20
